Time;durP1;ratioP1;P1;durP2;ratioP2;P2;SDS_P1;SDS_P2;PMS_P1;PMS_P2;Temp;Humidity;BMP_temperature;BMP_pressure;BME280_temperature;BME280_humidity;BME280_pressure;Samples;Min_cycle;Max_cycle;Signal;HPM_P1;HPM_P2
2023/12/13 00:00:24;;;;;;;;;5.00;5.00;;;;;-143.90;100.00;75430.66;4926933;28;103644;-71
2023/12/13 00:02:51;;;;;;;;;8.00;7.00;;;;;-143.90;100.00;75424.44;4928419;28;102009;-72
2023/12/13 00:05:17;;;;;;;;;6.00;5.00;;;;;-143.90;100.00;75414.13;4928195;28;101981;-72
2023/12/13 00:07:44;;;;;;;;;6.50;5.50;;;;;-143.90;100.00;75407.91;4930857;28;101681;-72
2023/12/13 00:10:10;;;;;;;;;5.75;5.00;;;;;-143.90;100.00;75401.72;4924833;28;103499;-72
2023/12/13 00:12:37;;;;;;;;;13.25;10.50;;;;;-143.90;100.00;75395.50;4926978;28;106420;-72
2023/12/13 00:15:04;;;;;;;;;31.67;26.33;;;;;-143.90;100.00;75387.22;4928475;28;101836;-72
2023/12/13 00:17:31;;;;;;;;;28.75;25.50;;;;;-143.90;100.00;75368.63;4929149;28;101707;-72
2023/12/13 00:19:58;;;;;;;;;32.00;27.25;;;;;-143.90;100.00;75358.28;4929307;28;103374;-72
2023/12/13 00:22:25;;;;;;;;;23.75;21.00;;;;;-143.90;100.00;75372.75;4928273;28;102236;-72
2023/12/13 00:24:51;;;;;;;;;32.00;24.75;;;;;-143.90;100.00;75383.09;4927850;28;104449;-72
2023/12/13 00:27:18;;;;;;;;;34.75;33.25;;;;;-143.90;100.00;75383.09;4927293;28;101903;-72
2023/12/13 00:29:44;;;;;;;;;33.75;28.25;;;;;-143.90;100.00;75381.03;4927144;28;103483;-72
2023/12/13 00:32:11;;;;;;;;;58.33;42.00;;;;;-143.90;100.00;75395.50;4927183;28;101833;-72
2023/12/13 00:34:37;;;;;;;;;60.67;45.00;;;;;-143.90;100.00;75397.56;4929192;28;101845;-72
2023/12/13 00:37:04;;;;;;;;;64.33;48.00;;;;;-143.90;100.00;75407.91;4933841;28;101792;-72
2023/12/13 00:39:32;;;;;;;;;67.33;54.00;;;;;-143.90;100.00;75422.38;4929742;28;103511;-72
2023/12/13 00:41:58;;;;;;;;;74.00;53.67;;;;;-143.90;100.00;75443.06;4932017;28;101950;-72
2023/12/13 00:44:25;;;;;;;;;69.00;52.33;;;;;-143.90;100.00;75457.53;4929872;28;102097;-72
2023/12/13 00:46:51;;;;;;;;;65.67;52.67;;;;;-143.90;100.00;75457.53;4931673;28;102048;-72
2023/12/13 00:49:20;;;;;;;;;80.33;59.00;;;;;-143.90;100.00;75457.53;4930883;28;103728;-73
2023/12/13 00:51:46;;;;;;;;;74.67;54.67;;;;;-143.90;100.00;75461.66;4930037;28;102525;-73
2023/12/13 00:54:13;;;;;;;;;74.67;52.00;;;;;-143.90;100.00;75461.66;4929792;28;102039;-73
2023/12/13 00:56:40;;;;;;;;;86.00;64.00;;;;;-143.90;100.00;75482.34;4931196;28;102062;-72
2023/12/13 00:59:06;;;;;;;;;95.00;68.75;;;;;-143.90;100.00;75498.88;4930673;28;103410;-72
2023/12/13 01:01:33;;;;;;;;;82.00;65.00;;;;;-143.90;100.00;75494.75;4930135;28;101936;-73
2023/12/13 01:03:59;;;;;;;;;87.25;62.75;;;;;-143.90;100.00;75482.34;4925499;28;101778;-72
2023/12/13 01:06:26;;;;;;;;;75.67;59.00;;;;;-143.90;100.00;75469.94;4931447;28;102113;-72
2023/12/13 01:08:53;;;;;;;;;70.00;54.67;;;;;-143.90;100.00;75465.81;4930229;28;103353;-72
2023/12/13 01:11:20;;;;;;;;;66.67;52.67;;;;;-143.90;100.00;75461.66;4929922;28;101971;-72
2023/12/13 01:13:46;;;;;;;;;65.67;51.67;;;;;-143.90;100.00;75461.66;4928845;28;101942;-72
2023/12/13 01:16:13;;;;;;;;;69.33;51.00;;;;;-143.90;100.00;75455.47;4934014;28;101753;-73
2023/12/13 01:18:40;;;;;;;;;74.33;56.67;;;;;-143.90;100.00;75461.66;4930251;28;103470;-72
2023/12/13 01:21:06;;;;;;;;;74.67;56.67;;;;;-143.90;100.00;75465.81;4929658;28;105645;-72
2023/12/13 01:23:33;;;;;;;;;80.33;56.33;;;;;-143.90;100.00;75467.88;4929362;28;101780;-72
2023/12/13 01:25:59;;;;;;;;;74.00;56.33;;;;;-143.90;100.00;75469.94;4931649;28;101640;-73
2023/12/13 01:28:26;;;;;;;;;69.00;51.67;;;;;-143.90;100.00;75465.81;4929690;28;103424;-73
2023/12/13 01:30:53;;;;;;;;;57.67;44.33;;;;;-143.90;100.00;75457.53;4930840;28;101693;-73
2023/12/13 01:33:19;;;;;;;;;49.67;42.33;;;;;-143.90;100.00;75451.31;4930488;28;101703;-73
2023/12/13 01:35:46;;;;;;;;;49.00;37.00;;;;;-143.90;100.00;75449.25;4930052;28;105059;-73
2023/12/13 01:38:13;;;;;;;;;34.67;30.33;;;;;-143.90;100.00;75434.78;4928141;28;103294;-73
2023/12/13 01:40:49;;;;;;;;;24.67;21.67;;;;;-143.90;100.00;75426.50;4928744;28;101771;-73
2023/12/13 01:43:35;;;;;;;;;33.33;24.00;;;;;-143.90;100.00;75422.38;4923414;28;101962;-74
2023/12/13 01:46:02;;;;;;;;;42.67;37.00;;;;;-143.90;100.00;75428.59;4928206;28;102183;-73
2023/12/13 01:48:29;;;;;;;;;54.67;41.67;;;;;-143.90;100.00;75424.44;4926990;28;103538;-73
2023/12/13 01:50:56;;;;;;;;;55.00;42.00;;;;;-143.90;100.00;75420.31;4927758;28;101867;-72
2023/12/13 01:53:25;;;;;;;;;49.33;43.00;;;;;-143.90;100.00;75416.19;4929228;28;102480;-72
2023/12/13 01:55:54;;;;;;;;;44.33;39.33;;;;;-143.90;100.00;75403.78;4930282;28;102142;-73
2023/12/13 01:58:22;;;;;;;;;38.33;35.00;;;;;-143.90;100.00;75397.56;4928534;28;103344;-72
2023/12/13 02:00:50;;;;;;;;;45.67;37.33;;;;;-143.90;100.00;75397.56;4927788;28;102080;-72
2023/12/13 02:03:19;;;;;;;;;38.00;31.33;;;;;-143.90;100.00;75391.38;4928271;28;102602;-73
2023/12/13 02:05:45;;;;;;;;;39.33;34.00;;;;;-143.90;100.00;75393.44;4928046;28;101729;-72
2023/12/13 02:08:13;;;;;;;;;41.33;34.00;;;;;-143.90;100.00;75378.97;4930089;28;103395;-72
2023/12/13 02:10:41;;;;;;;;;52.33;44.00;;;;;-143.90;100.00;75374.84;4927800;28;102015;-72
2023/12/13 02:13:08;;;;;;;;;54.00;46.00;;;;;-143.90;100.00;75378.97;4927712;28;102159;-73
2023/12/13 02:15:35;;;;;;;;;70.33;56.67;;;;;-143.90;100.00;75383.09;4933119;28;102042;-73
2023/12/13 02:18:02;;;;;;;;;70.00;51.67;;;;;-143.90;100.00;75374.84;4929334;28;107986;-73
2023/12/13 02:20:29;;;;;;;;;56.67;42.67;;;;;-143.90;100.00;75343.81;4930011;28;101679;-73
2023/12/13 02:22:56;;;;;;;;;44.33;36.00;;;;;-143.90;100.00;75312.81;4928780;28;102240;-72
2023/12/13 02:25:37;;;;;;;;;42.67;34.33;;;;;-143.90;100.00;75296.25;4930167;28;101948;-73
2023/12/13 02:28:05;;;;;;;;;41.00;35.00;;;;;-143.90;100.00;75277.66;4928100;28;107886;-73
2023/12/13 02:30:32;;;;;;;;;33.00;30.00;;;;;-143.90;100.00;75267.31;4929138;28;102127;-72
2023/12/13 02:32:59;;;;;;;;;36.67;32.00;;;;;-143.90;100.00;75254.91;4927752;28;101962;-73
2023/12/13 02:35:26;;;;;;;;;33.00;28.33;;;;;-143.90;100.00;75242.50;4927939;28;101839;-73
2023/12/13 02:37:52;;;;;;;;;37.67;32.00;;;;;-143.90;100.00;75238.38;4927478;28;103565;-73
2023/12/13 02:40:21;;;;;;;;;29.75;25.25;;;;;-143.90;100.00;75221.84;4927527;28;101889;-73
2023/12/13 02:42:48;;;;;;;;;30.50;29.25;;;;;-143.90;100.00;75213.56;4927678;28;101859;-73
2023/12/13 02:45:15;;;;;;;;;28.00;25.75;;;;;-143.90;100.00;75201.16;4928475;28;101698;-73
2023/12/13 02:47:42;;;;;;;;;19.25;19.25;;;;;-143.90;100.00;75197.03;4927407;28;103531;-73
2023/12/13 02:50:10;;;;;;;;;16.00;13.50;;;;;-143.90;100.00;75197.03;4930659;28;101935;-73
2023/12/13 02:52:40;;;;;;;;;20.00;16.25;;;;;-143.90;100.00;75203.22;4930120;28;101890;-73
2023/12/13 02:55:11;;;;;;;;;24.75;22.75;;;;;-143.90;100.00;75197.03;4927777;28;101834;-73
2023/12/13 02:57:38;;;;;;;;;37.25;29.75;;;;;-143.90;100.00;75197.03;4928634;28;103443;-73
2023/12/13 03:00:07;;;;;;;;;37.67;29.00;;;;;-143.90;100.00;75197.03;4930771;28;101893;-73
2023/12/13 03:02:34;;;;;;;;;32.50;26.50;;;;;-143.90;100.00;75184.63;4929950;28;101840;-73
2023/12/13 03:05:01;;;;;;;;;26.50;20.25;;;;;-143.90;100.00;75176.34;4928103;28;101870;-73
2023/12/13 03:07:28;;;;;;;;;30.00;25.75;;;;;-143.90;100.00;75163.94;4928605;28;103830;-73
2023/12/13 03:09:55;;;;;;;;;22.25;18.25;;;;;-143.90;100.00;75163.94;4930697;28;101779;-73
2023/12/13 03:12:21;;;;;;;;;23.75;18.50;;;;;-143.90;100.00;75163.94;4929229;28;102131;-73
2023/12/13 03:14:48;;;;;;;;;19.50;17.25;;;;;-143.90;100.00;75172.22;4928296;28;101878;-73
2023/12/13 03:17:15;;;;;;;;;39.50;31.25;;;;;-143.90;100.00;75188.75;4928749;28;103441;-73
2023/12/13 03:19:41;;;;;;;;;42.00;37.00;;;;;-143.90;100.00;75197.03;4929385;28;102109;-73
2023/12/13 03:22:08;;;;;;;;;48.00;39.00;;;;;-143.90;100.00;75213.56;4928943;28;101912;-73
2023/12/13 03:24:35;;;;;;;;;44.67;38.67;;;;;-143.90;100.00;75232.19;4930371;28;101897;-73
2023/12/13 03:27:02;;;;;;;;;36.00;33.33;;;;;-143.90;100.00;75250.78;4928798;28;109779;-73
2023/12/13 03:29:29;;;;;;;;;37.00;34.00;;;;;-143.90;100.00;75248.72;4943705;28;101886;-73
2023/12/13 03:31:55;;;;;;;;;52.00;42.67;;;;;-143.90;100.00;75275.59;4929001;28;102299;-73
2023/12/13 03:34:22;;;;;;;;;58.00;43.33;;;;;-143.90;100.00;75298.34;4926840;28;102102;-73
2023/12/13 03:36:48;;;;;;;;;60.33;43.33;;;;;-143.90;100.00;75302.47;4928057;28;103485;-73
2023/12/13 03:39:16;;;;;;;;;53.00;41.33;;;;;-143.90;100.00;75296.25;4928537;28;102632;-73
2023/12/13 03:41:42;;;;;;;;;36.67;34.67;;;;;-143.90;100.00;75279.72;4925778;28;102059;-73
2023/12/13 03:44:09;;;;;;;;;34.67;30.67;;;;;-143.90;100.00;75283.84;4929252;28;101651;-73
2023/12/13 03:46:36;;;;;;;;;41.00;34.00;;;;;-143.90;100.00;75281.78;4929591;28;103524;-73
2023/12/13 03:49:06;;;;;;;;;30.00;25.33;;;;;-143.90;100.00;75273.53;4927312;28;101669;-73
2023/12/13 03:51:33;;;;;;;;;26.25;24.25;;;;;-143.90;100.00;75279.72;4926392;28;102048;-73
2023/12/13 03:54:00;;;;;;;;;37.00;28.33;;;;;-143.90;100.00;75273.53;4928381;28;102553;-73
2023/12/13 03:56:29;;;;;;;;;37.67;31.00;;;;;-143.90;100.00;75283.84;4925025;28;103595;-73
2023/12/13 03:58:56;;;;;;;;;56.00;42.67;;;;;-143.90;100.00;75300.41;4928414;28;101715;-73
2023/12/13 04:01:23;;;;;;;;;35.33;32.67;;;;;-143.90;100.00;75304.53;4927224;28;103392;-73
2023/12/13 04:03:50;;;;;;;;;50.67;40.67;;;;;-143.90;100.00;75300.41;4929634;28;102814;-73
2023/12/13 04:06:17;;;;;;;;;51.00;41.67;;;;;-143.90;100.00;75298.34;4927859;28;103438;-73
2023/12/13 04:08:43;;;;;;;;;44.00;33.00;;;;;-143.90;100.00;75292.13;4929223;28;102589;-73
2023/12/13 04:11:10;;;;;;;;;43.00;32.33;;;;;-143.90;100.00;75279.72;4929375;28;101551;-73
2023/12/13 04:13:37;;;;;;;;;37.67;30.33;;;;;-143.90;100.00;75281.78;4932203;28;106019;-73
2023/12/13 04:16:04;;;;;;;;;27.67;27.00;;;;;-143.90;100.00;75259.06;4930823;28;108011;-73
2023/12/13 04:18:30;;;;;;;;;22.00;21.00;;;;;-143.90;100.00;75250.78;4932293;28;101670;-73
2023/12/13 04:20:57;;;;;;;;;35.33;26.00;;;;;-143.90;100.00;75246.66;4931495;28;102190;-74
2023/12/13 04:23:24;;;;;;;;;31.33;27.33;;;;;-143.90;100.00;75242.50;4933155;28;101837;-73
2023/12/13 04:25:51;;;;;;;;;14.67;10.33;;;;;-143.90;100.00;75234.25;4931892;28;103396;-74
2023/12/13 04:28:18;;;;;;;;;24.67;21.67;;;;;-143.90;100.00;75234.25;4930602;28;101966;-73
2023/12/13 04:30:44;;;;;;;;;23.00;21.33;;;;;-143.90;100.00;75221.84;4931301;28;102760;-73
2023/12/13 04:33:11;;;;;;;;;33.33;28.67;;;;;-143.90;100.00;75211.50;4932437;28;101664;-74
2023/12/13 04:35:38;;;;;;;;;31.67;26.67;;;;;-143.90;100.00;75205.28;4931397;28;103491;-73
2023/12/13 04:38:05;;;;;;;;;33.33;26.67;;;;;-143.90;100.00;75199.09;4934939;28;101594;-73
2023/12/13 04:40:32;;;;;;;;;28.50;23.00;;;;;-143.90;100.00;75184.63;4931717;28;102129;-74
2023/12/13 04:43:00;;;;;;;;;21.67;19.00;;;;;-143.90;100.00;75163.94;4931876;28;101934;-73
2023/12/13 04:45:27;;;;;;;;;22.25;18.50;;;;;-143.90;100.00;75157.75;4928158;28;103396;-73
2023/12/13 04:47:54;;;;;;;;;28.75;23.00;;;;;-143.90;100.00;75151.53;4932322;28;102039;-74
2023/12/13 04:50:22;;;;;;;;;28.25;25.75;;;;;-143.90;100.00;75145.34;4929304;28;101676;-73
2023/12/13 04:52:49;;;;;;;;;36.33;29.00;;;;;-143.90;100.00;75139.16;4932595;28;101710;-73
2023/12/13 04:55:15;;;;;;;;;29.00;24.25;;;;;-143.90;100.00;75130.88;4931227;28;103374;-73
2023/12/13 04:57:42;;;;;;;;;27.75;22.50;;;;;-143.90;100.00;75126.75;4929916;28;101962;-73
2023/12/13 05:00:09;;;;;;;;;22.00;19.75;;;;;-143.90;100.00;75110.19;4930038;28;101879;-73
2023/12/13 05:02:38;;;;;;;;;22.00;16.25;;;;;-143.90;100.00;75114.34;4931062;28;101705;-74
2023/12/13 05:05:05;;;;;;;;;31.50;26.50;;;;;-143.90;100.00;75135.00;4932147;28;108009;-74
2023/12/13 05:07:33;;;;;;;;;24.00;24.00;;;;;-143.90;100.00;75137.06;4931740;28;101985;-73
2023/12/13 05:10:00;;;;;;;;;28.00;26.25;;;;;-143.90;100.00;75139.16;4929540;28;101752;-74
2023/12/13 05:12:27;;;;;;;;;31.50;24.75;;;;;-143.90;100.00;75139.16;4930382;28;104765;-72
2023/12/13 05:14:54;;;;;;;;;23.50;22.00;;;;;-143.90;100.00;75139.16;4945523;28;103387;-72
2023/12/13 05:17:20;;;;;;;;;21.50;14.25;;;;;-143.90;100.00;75141.22;4930463;28;102013;-72
2023/12/13 05:19:47;;;;;;;;;18.75;14.25;;;;;-143.90;100.00;75135.00;4930700;28;102129;-72
2023/12/13 05:22:13;;;;;;;;;15.00;13.75;;;;;-143.90;100.00;75132.94;4931224;28;102944;-71
2023/12/13 05:24:40;;;;;;;;;21.00;17.50;;;;;-143.90;100.00;75147.41;4931351;28;103443;-74
2023/12/13 05:27:06;;;;;;;;;28.75;24.50;;;;;-143.90;100.00;75174.28;4933471;28;101889;-73
2023/12/13 05:29:34;;;;;;;;;32.25;24.25;;;;;-143.90;100.00;75170.16;4931241;28;102093;-72
2023/12/13 05:32:01;;;;;;;;;35.75;31.25;;;;;-143.90;100.00;75178.41;4931383;28;101914;-73
2023/12/13 05:34:27;;;;;;;;;41.50;30.50;;;;;-143.90;100.00;75180.50;4930319;28;103467;-73
2023/12/13 05:36:54;;;;;;;;;33.00;30.00;;;;;-143.90;100.00;75188.75;4931487;28;101716;-72
2023/12/13 05:39:21;;;;;;;;;34.67;30.00;;;;;-143.90;100.00;75180.50;4924284;28;102161;-72
2023/12/13 05:41:47;;;;;;;;;28.67;26.00;;;;;-143.90;100.00;75174.28;4928242;28;102766;-74
2023/12/13 05:44:14;;;;;;;;;21.50;19.00;;;;;-143.90;100.00;75172.22;4945434;28;103538;-73
2023/12/13 05:46:41;;;;;;;;;24.67;23.33;;;;;-143.90;100.00;75178.41;4928650;28;102734;-73
2023/12/13 05:49:07;;;;;;;;;32.67;30.33;;;;;-143.90;100.00;75172.22;4930406;28;101758;-72
2023/12/13 05:51:38;;;;;;;;;45.33;37.33;;;;;-143.90;100.00;75180.50;4929758;28;101994;-73
2023/12/13 05:54:05;;;;;;;;;45.33;38.67;;;;;-143.90;100.00;75188.75;4930572;28;103222;-74
2023/12/13 05:56:32;;;;;;;;;39.67;30.00;;;;;-143.90;100.00;75184.63;4928347;28;101858;-73
2023/12/13 05:58:58;;;;;;;;;30.00;25.67;;;;;-143.90;100.00;75178.41;4929374;28;101604;-74
2023/12/13 06:01:25;;;;;;;;;33.00;22.50;;;;;-143.90;100.00;75170.16;4946823;28;102718;-73
2023/12/13 06:03:52;;;;;;;;;11.50;9.25;;;;;-143.90;100.00;75163.94;4927933;28;103440;-73
2023/12/13 06:06:19;;;;;;;;;17.75;16.25;;;;;-143.90;100.00;75151.53;4927429;28;103062;-73
2023/12/13 06:08:45;;;;;;;;;21.75;17.75;;;;;-143.90;100.00;75147.41;4930169;28;101990;-73
2023/12/13 06:11:12;;;;;;;;;21.50;18.75;;;;;-143.90;100.00;75132.94;4946357;28;101999;-74
2023/12/13 06:13:38;;;;;;;;;13.00;11.50;;;;;-143.90;100.00;75126.75;4931427;28;103507;-72
2023/12/13 06:16:11;;;;;;;;;23.75;22.00;;;;;-143.90;100.00;75124.66;4933679;28;101701;-72
2023/12/13 06:18:39;;;;;;;;;34.75;26.25;;;;;-143.90;100.00;75137.06;4925920;28;101847;-73
2023/12/13 06:21:07;;;;;;;;;47.33;41.67;;;;;-143.90;100.00;75149.47;4928855;28;101715;-73
2023/12/13 06:23:35;;;;;;;;;54.33;45.33;;;;;-143.90;100.00;75151.53;4922496;28;107981;-73
2023/12/13 06:26:02;;;;;;;;;47.33;38.00;;;;;-143.90;100.00;75147.41;4930787;28;102092;-74
2023/12/13 06:28:29;;;;;;;;;39.33;36.67;;;;;-143.90;100.00;75126.75;4933050;28;101481;-73
2023/12/13 06:30:56;;;;;;;;;40.00;35.67;;;;;-143.90;100.00;75126.75;4931415;28;101880;-73
2023/12/13 06:33:22;;;;;;;;;32.67;26.00;;;;;-143.90;100.00;75116.41;4929660;28;103440;-73
2023/12/13 06:35:49;;;;;;;;;38.00;31.67;;;;;-143.90;100.00;75110.19;4931137;28;101779;-72
2023/12/13 06:38:16;;;;;;;;;28.33;23.67;;;;;-143.90;100.00;75106.06;4931508;28;101649;-73
2023/12/13 06:40:42;;;;;;;;;48.67;40.67;;;;;-143.90;100.00;75106.06;4925567;28;102450;-72
2023/12/13 06:43:09;;;;;;;;;50.00;42.00;;;;;-143.90;100.00;75124.66;4927773;28;103506;-73
2023/12/13 06:45:36;;;;;;;;;42.67;36.33;;;;;-143.90;100.00;75143.28;4932465;28;102139;-73
2023/12/13 06:48:03;;;;;;;;;50.33;32.00;;;;;-143.90;100.00;75128.81;4929703;28;101708;-73
2023/12/13 06:50:30;;;;;;;;;57.00;44.33;;;;;-143.90;100.00;75132.94;4932097;28;102076;-73
2023/12/13 06:52:56;;;;;;;;;38.67;35.67;;;;;-143.90;100.00;75120.53;4930935;28;103806;-74
2023/12/13 06:55:23;;;;;;;;;39.67;31.67;;;;;-143.90;100.00;75130.88;4928514;28;102260;-72
2023/12/13 06:57:50;;;;;;;;;39.00;31.67;;;;;-143.90;100.00;75122.59;4929385;28;101611;-74
2023/12/13 07:00:21;;;;;;;;;26.25;21.00;;;;;-143.90;100.00;75118.47;4928193;28;101505;-72
2023/12/13 07:02:47;;;;;;;;;22.00;17.50;;;;;-143.90;100.00;75110.19;4929937;28;103495;-73
2023/12/13 07:05:14;;;;;;;;;21.75;18.00;;;;;-143.90;100.00;75108.13;4931636;28;101528;-73
2023/12/13 07:07:42;;;;;;;;;16.25;15.00;;;;;-143.90;100.00;75093.66;4929137;28;101428;-73
2023/12/13 07:10:09;;;;;;;;;17.00;11.25;;;;;-143.90;100.00;75091.59;4930631;28;101728;-73
2023/12/13 07:12:35;;;;;;;;;26.75;18.75;;;;;-143.90;100.00;75089.53;4929498;28;103878;-73
2023/12/13 07:15:03;;;;;;;;;30.00;27.33;;;;;-143.90;100.00;75083.31;4918101;28;101583;-73
2023/12/13 07:17:29;;;;;;;;;46.00;35.33;;;;;-143.90;100.00;75097.78;4928355;28;101713;-72
2023/12/13 07:19:57;;;;;;;;;34.00;31.75;;;;;-143.90;100.00;75095.72;4927738;28;101817;-72
2023/12/13 07:22:23;;;;;;;;;22.75;14.75;;;;;-143.90;100.00;75077.13;4928317;28;103386;-74
2023/12/13 07:24:50;;;;;;;;;23.00;19.25;;;;;-143.90;100.00;75066.78;4930908;28;101596;-73
2023/12/13 07:27:17;;;;;;;;;19.75;15.00;;;;;-143.90;100.00;75064.72;4930595;28;101760;-73
2023/12/13 07:29:43;;;;;;;;;16.75;11.75;;;;;-143.90;100.00;75060.59;4933917;28;101856;-74
2023/12/13 07:32:10;;;;;;;;;10.75;9.50;;;;;-143.90;100.00;75058.50;4928172;28;109426;-73
2023/12/13 07:34:37;;;;;;;;;9.75;7.00;;;;;-143.90;100.00;75048.19;4929060;28;102603;-73
2023/12/13 07:37:04;;;;;;;;;12.00;10.25;;;;;-143.90;100.00;75048.19;4929132;28;102491;-74
2023/12/13 07:39:31;;;;;;;;;7.00;6.00;;;;;-143.90;100.00;75044.03;4928567;28;101715;-73
2023/12/13 07:41:58;;;;;;;;;9.75;8.50;;;;;-143.90;100.00;75033.72;4929114;28;103798;-73
2023/12/13 07:44:25;;;;;;;;;16.50;14.25;;;;;-143.90;100.00;75037.84;4928975;28;102040;-74
2023/12/13 07:46:53;;;;;;;;;11.75;10.00;;;;;-143.90;100.00;75023.38;4928671;28;102791;-73
2023/12/13 07:49:20;;;;;;;;;9.75;9.75;;;;;-143.90;100.00;75015.09;4928978;28;101683;-73
2023/12/13 07:51:47;;;;;;;;;11.50;10.50;;;;;-143.90;100.00;75015.09;4928796;28;103766;-74
2023/12/13 07:54:16;;;;;;;;;14.75;12.75;;;;;-143.90;100.00;75008.91;4932598;28;101487;-74
2023/12/13 07:56:45;;;;;;;;;14.00;14.00;;;;;-143.90;100.00;75006.84;4927910;28;101837;-74
2023/12/13 07:59:12;;;;;;;;;9.00;8.50;;;;;-143.90;100.00;74998.56;4927190;28;101805;-74
2023/12/13 08:01:38;;;;;;;;;10.25;10.25;;;;;-143.90;100.00;74994.44;4927861;28;103428;-74
2023/12/13 08:04:05;;;;;;;;;12.25;12.25;;;;;-143.90;100.00;74994.44;4929353;28;102078;-74
2023/12/13 08:06:33;;;;;;;;;20.75;17.25;;;;;-143.90;100.00;74990.28;4926990;28;101973;-74
2023/12/13 08:09:01;;;;;;;;;16.75;15.00;;;;;-143.90;100.00;74977.88;4929866;28;101896;-74
2023/12/13 08:11:28;;;;;;;;;15.75;12.00;;;;;-143.90;100.00;74967.56;4927106;28;103488;-74
2023/12/13 08:13:55;;;;;;;;;28.25;22.75;;;;;-143.90;100.00;74986.16;4928059;28;101859;-74
2023/12/13 08:16:22;;;;;;;;;30.50;24.25;;;;;-143.90;100.00;74984.09;4927027;28;102361;-74
2023/12/13 08:18:49;;;;;;;;;25.25;21.50;;;;;-143.90;100.00;74973.75;4929935;28;102137;-73
2023/12/13 08:21:16;;;;;;;;;20.75;19.00;;;;;-143.90;100.00;74969.63;4925109;28;103495;-73
2023/12/13 08:23:42;;;;;;;;;22.50;18.75;;;;;-143.90;100.00;74953.09;4927190;28;101525;-74
2023/12/13 08:26:12;;;;;;;;;15.50;12.00;;;;;-143.90;100.00;74944.81;4928257;28;102002;-73
2023/12/13 08:28:38;;;;;;;;;21.25;16.00;;;;;-143.90;100.00;74938.59;4929232;28;101642;-74
2023/12/13 08:31:07;;;;;;;;;15.00;13.75;;;;;-143.90;100.00;74924.13;4926119;28;103328;-74
2023/12/13 08:33:46;;;;;;;;;21.50;17.25;;;;;-143.90;100.00;74915.88;4925530;28;102603;-73
2023/12/13 08:36:13;;;;;;;;;25.25;21.75;;;;;-143.90;100.00;74924.13;4928601;28;101694;-73
2023/12/13 08:38:41;;;;;;;;;34.75;30.00;;;;;-143.90;100.00;74932.41;4926478;28;101921;-74
2023/12/13 08:41:09;;;;;;;;;24.50;22.00;;;;;-143.90;100.00;74938.59;4923737;28;103608;-73
2023/12/13 08:43:36;;;;;;;;;27.25;21.50;;;;;-143.90;100.00;74953.09;4927470;28;101891;-74
2023/12/13 08:46:03;;;;;;;;;24.00;20.75;;;;;-143.90;100.00;74961.34;4922294;28;101952;-73
2023/12/13 08:48:30;;;;;;;;;17.00;15.50;;;;;-143.90;100.00;74953.09;4927014;28;102811;-74
2023/12/13 08:50:58;;;;;;;;;19.25;16.50;;;;;-143.90;100.00;74953.09;4927094;28;104443;-72
2023/12/13 08:53:25;;;;;;;;;19.25;15.00;;;;;-143.90;100.00;74946.88;4929715;28;102192;-73
2023/12/13 08:55:51;;;;;;;;;14.75;14.50;;;;;-143.90;100.00;74948.94;4928786;28;101825;-73
2023/12/13 08:58:18;;;;;;;;;11.00;7.00;;;;;-143.90;100.00;74926.22;4929992;28;101699;-74
2023/12/13 09:00:45;;;;;;;;;12.75;11.00;;;;;-143.90;100.00;74932.41;4932062;28;103696;-73
2023/12/13 09:03:11;;;;;;;;;11.25;9.00;;;;;-143.90;100.00;74924.13;4947125;28;101836;-73
2023/12/13 09:05:38;;;;;;;;;8.00;7.00;;;;;-143.90;100.00;74917.94;4931297;28;101730;-73
2023/12/13 09:08:05;;;;;;;;;12.00;10.25;;;;;-143.90;100.00;74911.72;4934106;28;102005;-74
2023/12/13 09:10:34;;;;;;;;;11.25;8.00;;;;;-143.90;100.00;74911.72;4931479;28;103351;-73
2023/12/13 09:13:02;;;;;;;;;6.75;6.75;;;;;-143.90;100.00;74903.47;4929192;28;101852;-74
2023/12/13 09:15:31;;;;;;;;;7.00;3.00;;;;;-143.90;100.00;74893.13;4931915;28;102085;-74
2023/12/13 09:17:58;;;;;;;;;8.00;7.00;;;;;-143.90;100.00;74897.25;4931356;28;102305;-74
2023/12/13 09:20:24;;;;;;;;;16.00;15.00;;;;;-143.90;100.00;74903.47;4930453;28;103310;-74
2023/12/13 09:22:51;;;;;;;;;18.25;12.75;;;;;-143.90;100.00;74893.13;4928500;28;102435;-74
2023/12/13 09:25:18;;;;;;;;;11.00;8.75;;;;;-143.90;100.00;74882.78;4932600;28;101556;-73
2023/12/13 09:27:46;;;;;;;;;10.50;8.50;;;;;-143.90;100.00;74878.66;4934067;28;101600;-74
2023/12/13 09:30:13;;;;;;;;;10.00;9.00;;;;;-143.90;100.00;74864.19;4933604;28;108205;-74
2023/12/13 09:32:40;;;;;;;;;7.75;7.00;;;;;-143.90;100.00;74862.13;4932219;28;102070;-74
2023/12/13 09:35:10;;;;;;;;;11.00;9.75;;;;;-143.90;100.00;74860.06;4930838;28;101744;-74
2023/12/13 09:37:37;;;;;;;;;10.75;9.25;;;;;-143.90;100.00;74862.13;4930823;28;101838;-74
2023/12/13 09:40:04;;;;;;;;;8.25;7.50;;;;;-143.90;100.00;74853.84;4928129;28;103456;-74
2023/12/13 09:42:32;;;;;;;;;6.00;5.50;;;;;-143.90;100.00;74839.38;4930795;28;101958;-74
2023/12/13 09:45:04;;;;;;;;;7.00;7.00;;;;;-143.90;100.00;74833.19;4931659;28;101938;-73
2023/12/13 09:47:32;;;;;;;;;7.75;6.75;;;;;-143.90;100.00;74824.91;4931610;28;102599;-74
2023/12/13 09:49:59;;;;;;;;;7.00;6.75;;;;;-143.90;100.00;74818.72;4930747;28;103584;-74
2023/12/13 09:52:27;;;;;;;;;7.75;6.00;;;;;-143.90;100.00;74814.56;4928799;28;102195;-73
2023/12/13 09:54:55;;;;;;;;;11.25;6.25;;;;;-143.90;100.00;74806.31;4928791;28;101564;-74
2023/12/13 09:57:22;;;;;;;;;6.50;5.50;;;;;-143.90;100.00;74798.03;4932768;28;102481;-74
2023/12/13 09:59:48;;;;;;;;;5.00;3.50;;;;;-143.90;100.00;74791.84;4930402;28;103434;-74
2023/12/13 10:02:16;;;;;;;;;6.75;4.50;;;;;-143.90;100.00;74789.78;4930954;28;101715;-73
2023/12/13 10:04:44;;;;;;;;;6.25;5.00;;;;;-143.90;100.00;74787.69;4933670;28;102089;-74
2023/12/13 10:07:12;;;;;;;;;6.00;6.00;;;;;-143.90;100.00;74787.69;4932332;28;101661;-74
2023/12/13 10:09:38;;;;;;;;;7.00;5.50;;;;;-143.90;100.00;74783.56;4925149;28;103570;-73
2023/12/13 10:12:07;;;;;;;;;8.50;7.00;;;;;-143.90;100.00;74773.22;4930797;28;102928;-74
2023/12/13 10:14:35;;;;;;;;;5.75;5.75;;;;;-143.90;100.00;74769.09;4928631;28;102403;-74
2023/12/13 10:17:02;;;;;;;;;6.00;5.00;;;;;-143.90;100.00;74758.75;4929285;28;101655;-74
2023/12/13 10:19:44;;;;;;;;;8.25;7.75;;;;;-143.90;100.00;74750.50;4926510;28;107942;-73
2023/12/13 10:22:11;;;;;;;;;13.00;11.00;;;;;-143.90;100.00;74758.75;4929444;28;101792;-73
2023/12/13 10:24:38;;;;;;;;;10.25;9.25;;;;;-143.90;100.00;74752.56;4923870;28;101639;-73
2023/12/13 10:27:05;;;;;;;;;16.00;15.25;;;;;-143.90;100.00;74756.69;4927717;28;102099;-73
2023/12/13 10:29:31;;;;;;;;;18.25;13.00;;;;;-143.90;100.00;74758.75;4928578;28;103522;-73
2023/12/13 10:31:59;;;;;;;;;23.25;18.25;;;;;-143.90;100.00;74756.69;4931337;28;101687;-73
2023/12/13 10:34:27;;;;;;;;;20.00;16.00;;;;;-143.90;100.00;74758.75;4931303;28;101611;-73
2023/12/13 10:36:55;;;;;;;;;16.00;13.00;;;;;-143.90;100.00;74746.34;4930803;28;102086;-73
2023/12/13 10:39:24;;;;;;;;;12.75;11.25;;;;;-143.90;100.00;74727.75;4930855;28;103543;-73
2023/12/13 10:41:55;;;;;;;;;16.50;12.50;;;;;-143.90;100.00;74719.47;4931301;28;102015;-73
2023/12/13 10:44:23;;;;;;;;;12.75;11.50;;;;;-143.90;100.00;74700.88;4930254;28;101701;-72
2023/12/13 10:46:56;;;;;;;;;18.50;18.00;;;;;-143.90;100.00;74700.88;4931657;28;102181;-73
2023/12/13 10:49:24;;;;;;;;;11.00;9.50;;;;;-143.90;100.00;74686.41;4929624;28;103342;-73